Easton, MA (02334)

6:53 PM EDT on August 28, 2015 (GMT -0400)
Bryson Pond | | Change Station
CLOSE
Current Station
Personal Weather Station
Location: Norton, MA
Elevation: 88 ft
Nearby Weather Stations

Elev 88 ft 42.00 °N, 71.17 °W | Updated 5 seconds ago

Partly Cloudy
Partly Cloudy
70.2 °F
Feels Like 72 °F
N
0.0
Wind Variable Wind from WSW
Gusts 0.0 mph

Today
High -- | Low -- °F
--% Chance of Precip.
Yesterday
High -- | Low -- °F
Precip. -- in
6:05 AM 7:25 PM
Waxing Gibbous, 99% visible
Pressure 30.10 in
Visibility 10.0 miles
Clouds Scattered Clouds 6500 ft
Heat Index 72 °F
Dew Point 63 °F
Humidity 78%
Rainfall 0.00 in
Snow Depth Not available.
UV 1.0 out of 12
Pollen 9.50 out of 12
Air Quality Not available.
Flu Activity Not available.
METAR KOWD 282153Z 30004KT 10SM SCT065 26/12 A3010 RMK AO2 SLP192 T02560122
Pressure 30.10 in
Visibility 10.0 miles
Clouds Scattered Clouds 6500 ft
Heat Index 72 °F
Dew Point 63 °F
Humidity 78%
Rainfall 0.00 in
Snow Depth Not available.
UV 1.0 out of 12
Pollen 9.50 out of 12
Air Quality Not available.
Flu Activity Not available.
METAR KOWD 282153Z 30004KT 10SM SCT065 26/12 A3010 RMK AO2 SLP192 T02560122

10-Day Weather Forecast

×

Almanac

Astronomy

Aug. 28, 2015 Rise Set
Actual Time
Civil Twilight
Nautical Twilight
Astronomical Twilight
Moon
Length of Visible Light
Length of Day
Tomorrow will be .
, % of the Moon is Illuminated

Today's Extremes

State Highs State Lows

Community

WunderPhotos

Upload Photos

1,850,516 photos uploaded!

WunderBlogs® & News

Nearby

Air Quality

  Air Quality AQ Index Pollutant
Not available.

Snow Depth

Station Depth Elevation

Earthquake Activity

City Distance Mag. Time & Date
Minimum magnitude displayed is 2.5.

Coastal Water Temperatures

Place Temperature

Stations

Nearby Weather Stations

Station Location Temp. Windchill Dew Point Humidity Wind Precip. Elev Updated Type